Time;durP1;ratioP1;P1;durP2;ratioP2;P2;SDS_P1;SDS_P2;PMS_P1;PMS_P2;Temp;Humidity;BMP_temperature;BMP_pressure;BME280_temperature;BME280_humidity;BME280_pressure;Samples;Min_cycle;Max_cycle;Signal;HPM_P1;HPM_P2
2022/08/27 00:08:21;;;;;;;1999.90;999.90;;;20.30;99.90;;;;;;6743137;88;20201;-80
2022/08/27 00:18:22;;;;;;;1999.90;999.90;;;20.30;99.90;;;;;;6747494;88;20194;-80
2022/08/27 00:28:24;;;;;;;1999.90;999.90;;;20.30;99.90;;;;;;6745136;88;20265;-79
2022/08/27 00:38:25;;;;;;;1999.90;999.90;;;20.20;99.90;;;;;;6745892;88;20598;-79
2022/08/27 00:48:29;;;;;;;1999.90;999.90;;;20.10;99.90;;;;;;6747008;88;20172;-79
2022/08/27 00:58:38;;;;;;;;;;;20.00;99.90;;;;;;6739838;88;20199;-80
2022/08/27 01:08:42;;;;;;;1999.90;999.90;;;20.10;99.90;;;;;;6748334;88;20165;-80
2022/08/27 01:18:42;;;;;;;1999.90;999.90;;;20.10;99.90;;;;;;6752421;88;20196;-80
2022/08/27 01:28:44;;;;;;;1999.90;999.90;;;19.90;99.90;;;;;;6746370;88;20242;-79
2022/08/27 01:38:44;;;;;;;1999.90;999.90;;;19.90;99.90;;;;;;6746800;88;20506;-79
2022/08/27 01:48:45;;;;;;;1999.90;999.90;;;19.70;99.90;;;;;;6751531;88;20192;-79
2022/08/27 01:58:46;;;;;;;1999.90;999.90;;;19.70;99.90;;;;;;6743874;88;20244;-80
2022/08/27 02:08:46;;;;;;;1999.90;999.90;;;19.60;99.90;;;;;;6745768;88;20734;-80
2022/08/27 02:18:47;;;;;;;1999.90;999.90;;;19.60;99.90;;;;;;6745599;88;20234;-79
2022/08/27 02:28:48;;;;;;;1999.90;999.90;;;19.60;99.90;;;;;;6745748;88;20197;-80
2022/08/27 02:38:48;;;;;;;1999.90;999.90;;;19.40;99.90;;;;;;6745413;88;20236;-79
2022/08/27 02:48:49;;;;;;;1999.90;999.90;;;19.30;99.90;;;;;;6743949;88;20244;-79
2022/08/27 02:58:49;;;;;;;1999.90;999.90;;;19.20;99.90;;;;;;6746784;88;20291;-80
2022/08/27 03:08:50;;;;;;;1999.90;999.90;;;19.20;99.90;;;;;;6743553;88;20930;-80
2022/08/27 03:18:51;;;;;;;1999.90;999.90;;;19.30;99.90;;;;;;6746358;88;20223;-79
2022/08/27 03:28:52;;;;;;;1999.90;999.90;;;19.10;99.90;;;;;;6755554;88;20193;-80
2022/08/27 03:38:52;;;;;;;1999.90;999.90;;;19.00;99.90;;;;;;6744028;88;20781;-79
2022/08/27 03:48:53;;;;;;;1999.90;999.90;;;19.00;99.90;;;;;;6744111;88;20220;-80
2022/08/27 03:58:54;;;;;;;1999.90;999.90;;;19.20;99.90;;;;;;6741894;88;20529;-80
2022/08/27 04:18:58;;;;;;;1999.90;999.90;;;19.10;99.90;;;;;;6734938;88;20246;-77
2022/08/27 04:28:59;;;;;;;1999.90;999.90;;;19.00;99.90;;;;;;6717984;88;20182;-77
2022/08/27 04:39:00;;;;;;;1999.90;999.90;;;19.10;99.90;;;;;;6717613;88;20169;-76
2022/08/27 04:49:03;;;;;;;1999.90;999.90;;;19.10;99.90;;;;;;6717886;88;20190;-76
2022/08/27 04:59:06;;;;;;;1999.90;999.90;;;18.80;99.90;;;;;;6720532;88;20593;-77
2022/08/27 05:09:07;;;;;;;1999.90;999.90;;;19.00;99.90;;;;;;6724419;88;20663;-77
2022/08/27 05:19:13;;;;;;;1999.90;999.90;;;18.90;99.90;;;;;;6720793;88;20180;-77
2022/08/27 05:29:14;;;;;;;1999.90;999.90;;;18.90;99.90;;;;;;6716035;88;20273;-78
2022/08/27 05:39:15;;;;;;;1999.90;999.90;;;18.80;99.90;;;;;;6720374;88;20689;-75
2022/08/27 05:49:17;;;;;;;1999.90;999.90;;;18.70;99.90;;;;;;6718835;88;20242;-76
2022/08/27 06:09:38;;;;;;;1999.90;999.90;;;18.80;99.90;;;;;;6726145;88;20190;-77
2022/08/27 06:19:41;;;;;;;1999.90;999.90;;;18.80;99.90;;;;;;6719863;88;21118;-76
2022/08/27 06:29:42;;;;;;;1999.90;999.90;;;18.70;99.90;;;;;;6726533;88;20181;-78
2022/08/27 06:39:43;;;;;;;1999.90;999.90;;;18.70;99.90;;;;;;6730958;88;20772;-75
2022/08/27 06:49:43;;;;;;;1999.90;999.90;;;18.80;99.90;;;;;;6725190;88;20224;-76
2022/08/27 06:59:44;;;;;;;1999.90;999.90;;;18.60;99.90;;;;;;6725931;88;20170;-76
2022/08/27 07:09:44;;;;;;;1999.90;999.90;;;18.80;99.90;;;;;;6731560;88;20701;-77
2022/08/27 07:19:45;;;;;;;1999.90;999.90;;;18.70;99.90;;;;;;6738455;88;20693;-76
2022/08/27 07:29:46;;;;;;;1999.90;999.90;;;18.60;99.90;;;;;;6731102;88;20197;-77
2022/08/27 07:39:47;;;;;;;1999.90;999.90;;;18.60;99.90;;;;;;6728276;88;20217;-77
2022/08/27 07:49:47;;;;;;;1999.90;999.90;;;18.60;99.90;;;;;;6731651;88;20700;-77
2022/08/27 07:59:48;;;;;;;1999.90;999.90;;;18.80;99.90;;;;;;6731906;88;20209;-78
2022/08/27 08:09:48;;;;;;;1999.90;999.90;;;18.80;99.90;;;;;;6737100;88;20916;-77
2022/08/27 08:19:50;;;;;;;1999.90;999.90;;;18.80;99.90;;;;;;6735878;88;20200;-76
2022/08/27 08:29:50;;;;;;;1999.90;999.90;;;18.80;99.90;;;;;;6729497;88;20212;-77
2022/08/27 08:39:51;;;;;;;1999.90;999.90;;;18.90;99.90;;;;;;6731118;88;20227;-77
2022/08/27 08:50:17;;;;;;;1999.90;999.90;;;18.90;99.90;;;;;;6726290;88;20697;-76
2022/08/27 09:00:18;;;;;;;1999.90;999.90;;;18.90;99.90;;;;;;6730628;88;20212;-77
2022/08/27 09:10:46;;;;;;;1999.90;999.90;;;19.00;99.90;;;;;;6733703;88;20715;-77
2022/08/27 09:20:51;;;;;;;1999.90;999.90;;;18.90;99.90;;;;;;6732016;88;20194;-76
2022/08/27 09:30:54;;;;;;;1999.90;999.90;;;19.10;99.90;;;;;;6735839;88;20306;-77
2022/08/27 09:40:58;;;;;;;1999.90;999.90;;;19.00;99.90;;;;;;6736478;88;20194;-77
2022/08/27 09:51:00;;;;;;;1999.90;999.90;;;19.00;99.90;;;;;;6728893;88;20275;-76
2022/08/27 10:01:15;;;;;;;1999.90;999.90;;;18.90;99.90;;;;;;6728033;88;20254;-76
2022/08/27 10:11:22;;;;;;;1999.90;999.90;;;18.90;99.90;;;;;;6740988;88;20189;-76
2022/08/27 10:21:44;;;;;;;1999.90;999.90;;;19.00;99.90;;;;;;6739086;88;20168;-77
2022/08/27 10:32:15;;;;;;;1999.90;999.90;;;18.80;99.90;;;;;;6767429;87;20185;-77
2022/08/27 10:42:27;;;;;;;1999.90;999.90;;;19.00;99.90;;;;;;6752071;87;20849;-77
2022/08/27 10:52:58;;;;;;;1999.90;999.90;;;19.20;99.90;;;;;;6761743;87;20238;-77
2022/08/27 11:03:10;;;;;;;1999.90;999.90;;;19.30;99.90;;;;;;6756904;87;20196;-76
2022/08/27 11:13:27;;;;;;;1999.90;999.90;;;19.60;99.90;;;;;;6753050;87;20212;-76
2022/08/27 11:23:53;;;;;;;1999.90;999.90;;;19.60;99.90;;;;;;6751332;87;20202;-77
2022/08/27 11:34:01;;;;;;;1999.90;999.90;;;20.00;99.90;;;;;;6740308;87;20711;-77
2022/08/27 11:44:02;;;;;;;1999.90;999.90;;;20.00;99.90;;;;;;6755279;87;20268;-76
2022/08/27 11:54:21;;;;;;;1999.90;999.90;;;20.10;99.90;;;;;;6750193;87;20202;-77
2022/08/27 12:04:33;;;;;;;1999.90;999.90;;;20.50;99.90;;;;;;6747765;87;20745;-76
2022/08/27 12:14:54;;;;;;;1999.90;999.90;;;20.40;99.90;;;;;;6747645;87;20351;-77
2022/08/27 12:24:58;;;;;;;1999.90;999.90;;;20.20;99.90;;;;;;6748266;87;20204;-79
2022/08/27 12:35:04;;;;;;;;;;;20.60;99.90;;;;;;6756324;87;20204;-79
2022/08/27 12:45:05;;;;;;;1999.90;999.90;;;20.80;99.90;;;;;;6757816;87;20080;-80
2022/08/27 12:55:38;;;;;;;1999.90;999.90;;;21.30;99.90;;;;;;6752752;87;20188;-79
2022/08/27 13:05:42;;;;;;;1999.90;999.90;;;21.70;99.90;;;;;;6756243;87;20192;-80
2022/08/27 13:15:47;;;;;;;1999.90;999.90;;;21.90;99.90;;;;;;6760731;87;20208;-80
2022/08/27 13:26:06;;;;;;;1999.90;999.90;;;21.70;99.90;;;;;;6761881;88;20305;-81
2022/08/27 13:36:08;;;;;;;1999.90;999.90;;;21.80;99.90;;;;;;6752851;87;20189;-79
2022/08/27 13:46:16;;;;;;;1999.90;999.90;;;21.80;99.90;;;;;;6757184;88;20199;-79
2022/08/27 13:56:45;;;;;;;1999.90;999.90;;;21.90;99.90;;;;;;6760360;87;20178;-80
2022/08/27 14:06:46;;;;;;;1999.90;999.90;;;22.00;99.90;;;;;;6756032;87;20192;-77
2022/08/27 14:16:59;;;;;;;1999.90;999.90;;;22.40;99.90;;;;;;6762147;87;20725;-78
2022/08/27 14:27:11;;;;;;;1999.90;999.90;;;22.50;99.90;;;;;;6742156;87;20197;-76
2022/08/27 14:37:13;;;;;;;1999.90;999.90;;;22.40;99.90;;;;;;6749131;87;20267;-76
2022/08/27 14:47:15;;;;;;;1999.90;999.90;;;22.10;99.90;;;;;;6747797;87;20185;-76
2022/08/27 14:57:15;;;;;;;1999.90;999.90;;;22.30;99.90;;;;;;6748802;87;20193;-76
2022/08/27 15:07:18;;;;;;;1999.90;999.90;;;22.40;99.90;;;;;;6750204;87;20264;-78
2022/08/27 15:17:19;;;;;;;1999.90;999.90;;;22.60;99.90;;;;;;6751354;87;20185;-76
2022/08/27 15:27:20;;;;;;;1999.90;999.90;;;22.60;99.90;;;;;;6760960;87;20223;-75
2022/08/27 15:37:21;;;;;;;1999.90;999.90;;;22.50;99.90;;;;;;6748751;87;20206;-76
2022/08/27 15:47:23;;;;;;;1999.90;999.90;;;22.40;99.90;;;;;;6748076;88;20708;-76
2022/08/27 15:57:23;;;;;;;1999.90;999.90;;;21.80;99.90;;;;;;6739064;88;20213;-76
2022/08/27 16:07:24;;;;;;;1999.90;999.90;;;21.70;99.90;;;;;;6752957;87;20217;-78
2022/08/27 16:17:25;;;;;;;1999.90;999.90;;;21.60;99.90;;;;;;6749905;87;20180;-77
2022/08/27 16:27:26;;;;;;;1999.90;999.90;;;21.60;99.90;;;;;;6759379;87;20273;-77
2022/08/27 16:37:26;;;;;;;1999.90;999.90;;;21.50;99.90;;;;;;6754255;87;20189;-78
2022/08/27 16:47:27;;;;;;;1999.90;999.90;;;21.50;99.90;;;;;;6758854;87;20964;-77
2022/08/27 16:57:27;;;;;;;1999.90;999.90;;;21.40;99.90;;;;;;6758439;87;20224;-79
2022/08/27 17:07:28;;;;;;;1999.90;999.90;;;21.30;99.90;;;;;;6760517;87;20678;-77
2022/08/27 17:17:28;;;;;;;1999.90;999.90;;;21.10;99.90;;;;;;6751747;87;20181;-77
2022/08/27 17:27:29;;;;;;;1999.90;999.90;;;21.10;99.90;;;;;;6757304;87;20168;-77
2022/08/27 17:37:29;;;;;;;1999.90;999.90;;;20.90;99.90;;;;;;6754648;87;20198;-77
2022/08/27 17:47:30;;;;;;;1999.90;999.90;;;20.80;99.90;;;;;;6758286;87;20240;-78
2022/08/27 17:57:37;;;;;;;1999.90;999.90;;;20.90;99.90;;;;;;6746938;88;20220;-79
2022/08/27 18:07:38;;;;;;;1999.90;999.90;;;20.70;99.90;;;;;;6755118;87;20177;-77
2022/08/27 18:17:39;;;;;;;1999.90;999.90;;;20.80;99.90;;;;;;6750223;87;20336;-78
2022/08/27 18:27:42;;;;;;;1999.90;999.90;;;20.60;99.90;;;;;;6755763;87;20185;-77
2022/08/27 18:37:44;;;;;;;1999.90;999.90;;;20.70;99.90;;;;;;6751562;87;20290;-79
2022/08/27 18:47:45;;;;;;;1999.90;999.90;;;20.50;99.90;;;;;;6747850;88;20244;-78
2022/08/27 18:57:46;;;;;;;1999.90;999.90;;;20.60;99.90;;;;;;6751566;88;20332;-79
2022/08/27 19:07:47;;;;;;;1999.90;999.90;;;20.50;99.90;;;;;;6754490;87;20209;-79
2022/08/27 19:17:51;;;;;;;1999.90;999.90;;;20.50;99.90;;;;;;6756419;87;20234;-79
2022/08/27 19:27:52;;;;;;;1999.90;999.90;;;20.40;99.90;;;;;;6754949;87;20172;-79
2022/08/27 19:37:53;;;;;;;1999.90;999.90;;;20.40;99.90;;;;;;6752148;87;20257;-78
2022/08/27 19:47:54;;;;;;;1999.90;999.90;;;20.40;99.90;;;;;;6750310;87;20295;-80
2022/08/27 19:57:54;;;;;;;1999.90;999.90;;;20.30;99.90;;;;;;6753345;88;20226;-79
2022/08/27 20:07:55;;;;;;;1999.90;999.90;;;20.30;99.90;;;;;;6767834;87;20302;-79
2022/08/27 20:17:58;;;;;;;1999.90;999.90;;;20.20;99.90;;;;;;6753042;88;20229;-77
2022/08/27 20:27:58;;;;;;;1999.90;999.90;;;20.20;99.90;;;;;;6751943;88;20196;-77
2022/08/27 20:37:59;;;;;;;1999.90;999.90;;;20.10;99.90;;;;;;6751937;88;20177;-77
2022/08/27 20:48:01;;;;;;;1999.90;999.90;;;20.00;99.90;;;;;;6749962;87;20319;-77
2022/08/27 21:08:21;;;;;;;1999.90;999.90;;;20.00;99.90;;;;;;6748447;87;20251;-77
2022/08/27 21:18:21;;;;;;;1999.90;999.90;;;19.90;99.90;;;;;;6752139;87;20402;-77
2022/08/27 21:28:22;;;;;;;1999.90;999.90;;;19.90;99.90;;;;;;6756522;87;20518;-77
2022/08/27 21:38:22;;;;;;;1999.90;999.90;;;19.80;99.90;;;;;;6750316;87;20205;-77
2022/08/27 21:48:24;;;;;;;1999.90;999.90;;;19.80;99.90;;;;;;6749239;88;20322;-77
2022/08/27 21:58:24;;;;;;;1999.90;999.90;;;19.80;99.90;;;;;;6747961;87;20302;-77
2022/08/27 22:08:25;;;;;;;1999.90;999.90;;;19.80;99.90;;;;;;6754172;87;20673;-77
2022/08/27 22:18:26;;;;;;;1999.90;999.90;;;19.80;99.90;;;;;;6749779;87;20196;-77
2022/08/27 22:38:27;;;;;;;1999.90;999.90;;;19.90;99.90;;;;;;6732638;88;20193;-77
2022/08/27 22:48:27;;;;;;;1999.90;999.90;;;20.00;99.90;;;;;;6735419;88;20209;-78
2022/08/27 22:58:28;;;;;;;1999.90;999.90;;;19.90;99.90;;;;;;6729515;88;20173;-77
2022/08/27 23:08:30;;;;;;;1999.90;999.90;;;20.00;99.90;;;;;;6731828;88;20205;-77
2022/08/27 23:18:31;;;;;;;1999.90;999.90;;;20.00;99.90;;;;;;6731798;88;20189;-77
2022/08/27 23:28:31;;;;;;;1999.90;999.90;;;20.00;99.90;;;;;;6732269;88;20398;-78
2022/08/27 23:38:32;;;;;;;1999.90;999.90;;;20.00;99.90;;;;;;6731906;88;20531;-77
2022/08/27 23:48:33;;;;;;;1999.90;999.90;;;20.00;99.90;;;;;;6731400;88;20201;-78
2022/08/27 23:58:33;;;;;;;1999.90;999.90;;;20.20;99.90;;;;;;6736361;88;20224;-77
